createdAt,value
2019-04-06T00:01:16.567Z,99179.46
2019-04-06T00:06:20.682Z,99179.11
2019-04-06T00:11:24.770Z,99162.29
2019-04-06T00:16:28.829Z,99162.29
2019-04-06T00:21:32.880Z,99183.00
2019-04-06T00:26:37.064Z,99196.72
2019-04-06T00:31:58.766Z,99185.55
2019-04-06T00:37:03.042Z,99167.39
2019-04-06T00:42:07.168Z,99183.36
2019-04-06T00:47:11.205Z,99178.82
2019-04-06T00:52:15.285Z,99178.47
2019-04-06T00:57:19.429Z,99166.89
2019-04-06T01:02:23.540Z,99186.05
2019-04-06T01:07:27.621Z,99186.44
2019-04-06T01:12:31.663Z,99178.47
2019-04-06T01:17:35.782Z,99168.38
2019-04-06T01:22:39.781Z,99189.24
2019-04-06T01:27:43.885Z,99171.08
2019-04-06T01:32:47.916Z,99175.76
2019-04-06T01:37:51.961Z,99188.80
2019-04-06T01:42:55.952Z,99189.94
2019-04-06T01:47:59.976Z,99189.23
2019-04-06T01:53:04.034Z,99189.23
2019-04-06T01:58:08.130Z,99196.92
2019-04-06T02:03:12.195Z,99194.02
2019-04-06T02:08:16.272Z,99195.27
2019-04-06T02:13:20.296Z,99201.80
2019-04-06T02:18:24.414Z,99204.14
2019-04-06T02:23:28.427Z,99205.88
2019-04-06T02:28:32.513Z,99197.39
2019-04-06T02:33:46.921Z,99192.05
2019-04-06T02:39:09.010Z,99206.17
2019-04-06T02:44:13.089Z,99213.05
2019-04-06T02:49:17.105Z,99213.05
2019-04-06T02:54:21.177Z,99220.17
2019-04-06T02:59:25.763Z,99220.17
2019-04-06T03:04:29.916Z,99217.52
2019-04-06T03:09:34.347Z,99191.38
2019-04-06T03:14:38.503Z,99199.92
2019-04-06T03:19:42.642Z,99210.19
2019-04-06T03:24:46.819Z,99205.58
2019-04-06T03:29:58.279Z,99188.88
2019-04-06T03:34:56.652Z,99197.58
2019-04-06T03:40:00.682Z,99197.58
2019-04-06T03:45:05.091Z,99206.11
2019-04-06T03:50:10.156Z,99206.72
2019-04-06T03:55:14.244Z,99206.72
2019-04-06T04:00:18.507Z,99202.96
2019-04-06T04:05:22.487Z,99202.96
2019-04-06T04:10:36.218Z,99186.71
2019-04-06T04:15:40.479Z,99199.42
2019-04-06T04:20:44.505Z,99211.03
2019-04-06T04:25:48.521Z,99211.03
2019-04-06T04:30:52.541Z,99210.79
2019-04-06T04:35:56.545Z,99195.84
2019-04-06T04:41:00.533Z,99215.14
2019-04-06T04:46:04.733Z,99219.42
2019-04-06T04:51:08.972Z,99218.34
2019-04-06T04:56:13.251Z,99202.98
2019-04-06T05:01:17.264Z,99202.98
2019-04-06T05:06:21.415Z,99232.05
2019-04-06T05:11:25.442Z,99245.99
2019-04-06T05:16:29.478Z,99241.24
2019-04-06T05:21:33.477Z,99250.66
2019-04-06T05:26:38.394Z,99256.04
2019-04-06T05:31:42.556Z,99254.80
2019-04-06T05:36:46.542Z,99254.80
2019-04-06T05:41:51.173Z,99256.42
2019-04-06T05:46:55.215Z,99259.11
2019-04-06T05:51:59.242Z,99265.48
2019-04-06T05:57:03.215Z,99253.64
2019-04-06T06:02:07.811Z,99273.19
2019-04-06T06:07:13.267Z,99268.56
2019-04-06T06:12:17.258Z,99288.58
2019-04-06T06:17:21.257Z,99285.55
2019-04-06T06:22:25.245Z,99297.50
2019-04-06T06:27:29.354Z,99297.50
2019-04-06T06:32:33.420Z,99294.81
2019-04-06T06:37:38.758Z,99299.34
2019-04-06T06:42:42.859Z,99301.05
2019-04-06T06:47:46.880Z,99297.40
2019-04-06T06:52:50.875Z,99300.67
2019-04-06T06:57:54.900Z,99300.67
2019-04-06T07:02:58.970Z,99309.98
2019-04-06T07:08:02.987Z,99308.95
2019-04-06T07:13:07.340Z,99306.17
2019-04-06T07:18:11.442Z,99292.70
2019-04-06T07:23:15.474Z,99298.08
2019-04-06T07:28:19.563Z,99317.38
2019-04-06T07:33:23.591Z,99299.05
2019-04-06T07:38:28.112Z,99300.75
2019-04-06T07:43:32.211Z,99312.23
2019-04-06T07:48:36.447Z,99314.27
2019-04-06T07:53:40.778Z,99300.56
2019-04-06T07:58:49.313Z,99315.95
2019-04-06T08:03:50.857Z,99312.27
2019-04-06T08:08:54.880Z,99313.23
2019-04-06T08:13:58.987Z,99313.23
2019-04-06T08:19:03.338Z,99310.54
2019-04-06T08:24:07.594Z,99314.83
2019-04-06T08:29:11.657Z,99304.76
2019-04-06T08:34:15.744Z,99303.28
2019-04-06T08:39:20.072Z,99296.20
2019-04-06T08:44:24.200Z,99277.35
2019-04-06T08:49:28.429Z,99277.35
2019-04-06T08:54:32.473Z,99286.39
2019-04-06T08:59:36.621Z,99277.97
2019-04-06T09:04:40.824Z,99288.18
2019-04-06T09:09:44.919Z,99286.20
2019-04-06T09:14:49.088Z,99285.56
2019-04-06T09:19:53.197Z,99281.14
2019-04-06T09:24:57.315Z,99278.45
2019-04-06T09:30:01.728Z,99269.77
2019-04-06T09:35:06.835Z,99269.77
2019-04-06T09:40:13.241Z,99270.48
2019-04-06T09:45:36.699Z,99253.58
2019-04-06T09:51:11.620Z,99246.56
2019-04-06T09:56:47.136Z,99246.81
2019-04-06T10:02:10.294Z,99238.73
2019-04-06T10:07:33.371Z,99236.11
2019-04-06T10:13:03.118Z,99223.28
2019-04-06T10:18:35.634Z,99218.75
2019-04-06T10:24:01.441Z,99212.26
2019-04-06T10:29:27.606Z,99195.81
2019-04-06T10:34:41.136Z,99195.81
2019-04-06T10:40:01.539Z,99195.31
2019-04-06T10:45:24.351Z,99185.70
2019-04-06T10:50:37.497Z,99182.40
2019-04-06T10:55:47.202Z,99185.45
2019-04-06T11:01:04.710Z,99185.45
2019-04-06T11:06:23.166Z,99186.25
2019-04-06T11:11:37.375Z,99167.02
2019-04-06T11:16:57.738Z,99155.11
2019-04-06T11:22:11.075Z,99155.11
2019-04-06T11:27:34.383Z,99137.91
2019-04-06T11:32:48.083Z,99153.22
2019-04-06T11:38:03.082Z,99153.22
2019-04-06T11:43:15.733Z,99137.86
2019-04-06T11:48:29.444Z,99116.56
2019-04-06T11:53:52.101Z,99121.80
2019-04-06T11:59:17.882Z,99128.44
2019-04-06T12:04:43.158Z,99122.29
2019-04-06T12:10:05.088Z,99119.45
2019-04-06T12:15:18.427Z,99119.45
2019-04-06T12:20:40.533Z,99092.87
2019-04-06T12:25:56.903Z,99092.31
2019-04-06T12:31:11.001Z,99067.92
2019-04-06T12:36:33.250Z,99074.30
2019-04-06T12:41:55.239Z,99070.77
2019-04-06T12:47:12.212Z,99076.64
2019-04-06T12:52:29.218Z,99061.51
2019-04-06T12:57:41.897Z,99058.75
2019-04-06T13:02:56.796Z,99054.47
2019-04-06T13:08:25.931Z,99054.47
2019-04-06T13:14:04.457Z,99043.20
2019-04-06T13:19:27.572Z,99035.81
2019-04-06T13:24:44.762Z,99035.81
2019-04-06T13:30:10.792Z,99034.31
2019-04-06T13:35:24.238Z,99030.42
2019-04-06T13:40:46.645Z,99029.94
2019-04-06T13:46:10.133Z,99020.44
2019-04-06T13:51:24.266Z,99026.37
2019-04-06T13:56:46.855Z,99007.09
2019-04-06T14:02:07.527Z,99016.66
2019-04-06T14:07:19.214Z,99022.05
2019-04-06T14:12:48.332Z,99022.05
2019-04-06T14:18:10.352Z,99010.08
2019-04-06T14:23:45.555Z,99010.08
2019-04-06T14:29:08.644Z,99007.99
2019-04-06T14:34:37.674Z,98994.83
2019-04-06T14:39:59.805Z,98990.70
2019-04-06T14:45:15.603Z,98990.70
2019-04-06T14:50:29.563Z,99016.23
2019-04-06T14:55:50.840Z,98995.59
2019-04-06T15:01:43.648Z,98990.35
2019-04-06T15:07:10.705Z,98999.67
2019-04-06T15:12:19.299Z,98999.67
2019-04-06T15:17:29.249Z,98982.27
2019-04-06T15:22:45.276Z,98982.27
2019-04-06T15:27:59.816Z,98993.55
2019-04-06T15:33:22.108Z,98986.31
2019-04-06T15:38:44.051Z,98989.47
2019-04-06T15:44:07.322Z,98996.50
2019-04-06T15:49:19.715Z,98996.50
2019-04-06T15:54:38.953Z,98992.09
2019-04-06T16:00:02.040Z,98987.53
2019-04-06T16:05:32.937Z,98991.03
2019-04-06T16:11:01.472Z,98985.34
2019-04-06T16:16:12.638Z,98990.61
2019-04-06T16:21:30.489Z,98982.45
2019-04-06T16:26:46.301Z,98981.95
2019-04-06T16:31:58.033Z,98989.77
2019-04-06T16:37:13.239Z,98989.16
2019-04-06T16:42:31.422Z,98989.16
2019-04-06T16:48:00.670Z,99002.37
2019-04-06T16:53:20.313Z,99002.37
2019-04-06T16:58:39.014Z,99004.63
2019-04-06T17:03:56.143Z,99011.91
2019-04-06T17:09:08.116Z,99006.29
2019-04-06T17:14:40.225Z,99006.29
2019-04-06T17:19:55.879Z,99005.95
2019-04-06T17:25:21.743Z,99019.98
2019-04-06T17:30:39.643Z,99027.99
2019-04-06T17:35:53.453Z,99024.33
2019-04-06T17:41:20.538Z,99036.50
2019-04-06T17:46:43.615Z,99042.40
2019-04-06T17:52:06.583Z,99041.28
2019-04-06T17:57:30.082Z,99050.63
2019-04-06T18:03:02.517Z,99050.63
2019-04-06T18:08:37.819Z,99060.92
2019-04-06T18:13:51.263Z,99070.36
2019-04-06T18:18:55.492Z,99078.09
2019-04-06T18:23:59.747Z,99086.03
2019-04-06T18:29:03.936Z,99078.16
2019-04-06T18:34:08.189Z,99089.59
2019-04-06T18:39:12.437Z,99099.79
2019-04-06T18:44:16.590Z,99101.09
2019-04-06T18:49:20.636Z,99101.44
2019-04-06T18:54:25.293Z,99101.44
2019-04-06T18:59:29.488Z,99116.39
2019-04-06T19:04:33.946Z,99116.54
2019-04-06T19:09:38.279Z,99116.54
2019-04-06T19:14:42.810Z,99118.38
2019-04-06T19:19:46.891Z,99123.92
2019-04-06T19:24:51.069Z,99123.92
2019-04-06T19:29:55.219Z,99112.56
2019-04-06T19:34:59.517Z,99116.25
2019-04-06T19:40:03.930Z,99119.09
2019-04-06T19:45:09.176Z,99122.64
2019-04-06T19:50:13.799Z,99122.64
2019-04-06T19:55:18.159Z,99117.60
2019-04-06T20:00:22.792Z,99127.19
2019-04-06T20:05:27.278Z,99126.11
2019-04-06T20:10:31.712Z,99119.22
2019-04-06T20:15:36.423Z,99119.72
2019-04-06T20:20:40.399Z,99115.91
2019-04-06T20:25:44.523Z,99115.91
2019-04-06T20:30:48.749Z,99113.56
2019-04-06T20:35:53.217Z,99112.56
2019-04-06T20:40:57.850Z,99121.14
2019-04-06T20:46:02.068Z,99121.14
2019-04-06T20:51:06.220Z,99114.91
2019-04-06T20:56:10.728Z,99119.80
2019-04-06T21:01:14.879Z,99120.80
2019-04-06T21:06:19.181Z,99125.69
2019-04-06T21:11:23.348Z,99125.69
2019-04-06T21:16:27.598Z,99129.23
2019-04-06T21:21:32.751Z,99131.08
2019-04-06T21:26:36.889Z,99131.08
2019-04-06T21:31:40.964Z,99135.62
2019-04-06T21:36:45.053Z,99123.14
2019-04-06T21:41:49.752Z,99123.14
2019-04-06T21:46:53.906Z,99131.73
2019-04-06T21:51:57.945Z,99126.52
2019-04-06T21:57:01.981Z,99126.52
2019-04-06T22:02:07.079Z,99128.53
2019-04-06T22:07:11.418Z,99128.53
2019-04-06T22:12:15.507Z,99136.27
2019-04-06T22:17:19.890Z,99140.78
2019-04-06T22:22:23.945Z,99134.54
2019-04-06T22:27:28.004Z,99136.03
2019-04-06T22:32:32.311Z,99136.03
2019-04-06T22:37:37.094Z,99134.19
2019-04-06T22:42:41.265Z,99127.45
2019-04-06T22:47:45.290Z,99131.49
2019-04-06T22:52:49.377Z,99129.30
2019-04-06T22:57:53.448Z,99127.45
2019-04-06T23:03:10.473Z,99132.34
2019-04-06T23:08:14.620Z,99129.80
2019-04-06T23:13:18.687Z,99131.49
2019-04-06T23:18:23.086Z,99120.09
2019-04-06T23:23:27.207Z,99123.01
2019-04-06T23:28:31.840Z,99123.36
2019-04-06T23:33:35.969Z,99123.36
2019-04-06T23:38:40.456Z,99127.75
2019-04-06T23:43:44.782Z,99120.66
2019-04-06T23:48:49.848Z,99124.06
2019-04-06T23:53:53.996Z,99128.25
2019-04-06T23:58:58.071Z,99128.25
